Time;durP1;ratioP1;P1;durP2;ratioP2;P2;SDS_P1;SDS_P2;PMS_P1;PMS_P2;Temp;Humidity;BMP_temperature;BMP_pressure;BME280_temperature;BME280_humidity;BME280_pressure;Samples;Min_cycle;Max_cycle;Signal;HPM_P1;HPM_P2
2023/10/31 00:02:12;;;;;;;14.50;14.00;;;13.70;99.90;;;;;;5029513;28;20586;-62
2023/10/31 00:04:40;;;;;;;16.63;16.03;;;13.70;99.90;;;;;;5029841;28;20228;-62
2023/10/31 00:07:07;;;;;;;19.30;18.63;;;13.70;99.90;;;;;;5029780;28;20235;-63
2023/10/31 00:09:34;;;;;;;20.30;19.60;;;13.70;99.90;;;;;;5030101;28;20201;-63
2023/10/31 00:12:00;;;;;;;14.93;14.43;;;13.60;99.90;;;;;;5030039;28;20208;-64
2023/10/31 00:14:27;;;;;;;17.87;17.27;;;13.60;99.90;;;;;;5029667;28;20980;-63
2023/10/31 00:16:54;;;;;;;20.30;19.60;;;13.60;99.90;;;;;;5029892;28;20204;-63
2023/10/31 00:19:21;;;;;;;20.70;19.97;;;13.50;99.90;;;;;;5030006;28;20632;-62
2023/10/31 00:21:49;;;;;;;14.90;14.40;;;13.50;99.90;;;;;;5029874;28;20212;-63
2023/10/31 00:24:15;;;;;;;15.10;14.60;;;13.50;99.90;;;;;;5026924;28;20232;-62
2023/10/31 00:26:42;;;;;;;14.40;13.90;;;13.50;99.90;;;;;;5029259;28;20235;-63
2023/10/31 00:29:09;;;;;;;12.90;12.50;;;13.60;99.90;;;;;;5030120;28;20212;-63
2023/10/31 00:31:35;;;;;;;14.60;14.10;;;13.60;99.90;;;;;;5029344;28;20209;-63
2023/10/31 00:34:02;;;;;;;13.23;12.73;;;13.60;99.90;;;;;;5030049;28;20287;-63
2023/10/31 00:36:29;;;;;;;13.10;12.70;;;13.70;99.90;;;;;;5029841;28;20215;-62
2023/10/31 00:38:57;;;;;;;12.17;11.77;;;13.60;99.90;;;;;;5032967;28;20696;-63
2023/10/31 00:41:24;;;;;;;11.90;11.50;;;13.70;99.90;;;;;;5035960;28;20213;-63
2023/10/31 00:43:50;;;;;;;11.77;11.37;;;13.60;99.90;;;;;;5035802;28;20240;-63
2023/10/31 00:46:17;;;;;;;12.50;12.10;;;13.60;99.90;;;;;;5034091;28;20208;-63
2023/10/31 00:48:44;;;;;;;11.40;11.00;;;13.50;99.90;;;;;;5034265;28;20219;-65
2023/10/31 00:51:11;;;;;;;11.43;11.03;;;13.50;99.90;;;;;;5033787;28;20213;-63
2023/10/31 00:53:37;;;;;;;11.20;10.80;;;13.50;99.90;;;;;;5028410;28;20228;-62
2023/10/31 00:56:06;;;;;;;12.57;12.07;;;13.60;99.90;;;;;;5041232;28;20695;-62
2023/10/31 00:58:33;;;;;;;11.40;11.00;;;13.60;99.90;;;;;;5047736;28;20200;-63
2023/10/31 01:01:00;;;;;;;11.50;11.10;;;13.60;99.90;;;;;;5051386;28;20232;-63
2023/10/31 01:03:28;;;;;;;11.63;11.23;;;13.60;99.90;;;;;;5048569;28;20239;-63
2023/10/31 01:05:54;;;;;;;12.03;11.63;;;13.60;99.90;;;;;;5046066;28;20234;-64
2023/10/31 01:08:21;;;;;;;12.43;12.03;;;13.60;99.90;;;;;;5042061;28;20248;-63
2023/10/31 01:10:48;;;;;;;13.30;12.90;;;13.60;99.90;;;;;;5039721;28;20209;-63
2023/10/31 01:13:16;;;;;;;14.53;14.03;;;13.60;99.90;;;;;;5033039;28;20217;-62
2023/10/31 01:15:43;;;;;;;12.20;11.80;;;13.50;99.90;;;;;;5030568;28;20220;-65
2023/10/31 01:18:10;;;;;;;13.00;12.60;;;13.50;99.90;;;;;;5033270;28;20224;-65
2023/10/31 01:20:36;;;;;;;13.30;12.87;;;13.40;99.90;;;;;;5028519;28;20209;-62
2023/10/31 01:23:03;;;;;;;12.87;12.47;;;13.40;99.90;;;;;;5032490;28;20211;-64
2023/10/31 01:25:30;;;;;;;13.70;13.20;;;13.40;99.90;;;;;;5033960;28;20212;-64
2023/10/31 01:27:56;;;;;;;12.43;12.03;;;13.40;99.90;;;;;;5033713;28;20220;-65
2023/10/31 01:30:24;;;;;;;12.30;11.90;;;13.40;99.90;;;;;;5029268;28;20609;-64
2023/10/31 01:32:51;;;;;;;11.80;11.40;;;13.40;99.90;;;;;;5033039;28;20231;-63
2023/10/31 01:35:18;;;;;;;11.97;11.57;;;13.30;99.90;;;;;;5035083;28;20229;-63
2023/10/31 01:37:45;;;;;;;11.90;11.50;;;13.30;99.90;;;;;;5033519;28;20678;-62
2023/10/31 01:40:14;;;;;;;11.30;10.90;;;13.30;99.90;;;;;;5033687;28;20227;-64
2023/10/31 01:42:41;;;;;;;12.13;11.73;;;13.30;99.90;;;;;;5033566;28;20316;-63
2023/10/31 01:45:09;;;;;;;11.23;10.83;;;13.30;99.90;;;;;;5032431;28;20239;-62
2023/10/31 01:47:37;;;;;;;12.97;12.57;;;13.40;99.90;;;;;;5031928;28;20231;-64
2023/10/31 01:50:07;;;;;;;12.07;11.67;;;13.40;99.90;;;;;;5033009;28;20220;-62
2023/10/31 01:52:35;;;;;;;12.13;11.73;;;13.40;99.90;;;;;;5033055;28;20718;-62
2023/10/31 01:55:03;;;;;;;11.40;11.00;;;13.40;99.90;;;;;;5033498;28;20303;-63
2023/10/31 01:57:30;;;;;;;12.87;12.37;;;13.40;99.90;;;;;;5033039;28;20205;-62
2023/10/31 01:59:57;;;;;;;13.60;13.10;;;13.40;99.90;;;;;;5032607;28;20616;-62
2023/10/31 02:02:31;;;;;;;11.57;11.17;;;13.40;99.90;;;;;;5031599;28;20259;-62
2023/10/31 02:05:00;;;;;;;11.47;11.07;;;13.30;99.90;;;;;;5031757;28;20233;-64
2023/10/31 02:07:27;;;;;;;11.50;11.10;;;13.30;99.90;;;;;;5032308;28;20239;-64
2023/10/31 02:09:54;;;;;;;11.60;11.20;;;13.30;99.90;;;;;;5031966;28;20323;-62
2023/10/31 02:12:34;;;;;;;11.53;11.13;;;13.30;99.90;;;;;;5031235;28;20212;-64
2023/10/31 02:15:01;;;;;;;11.83;11.43;;;13.30;99.90;;;;;;5031439;28;20239;-64
2023/10/31 02:17:28;;;;;;;11.97;11.57;;;13.30;99.90;;;;;;5029865;28;20304;-62
2023/10/31 02:19:55;;;;;;;11.67;11.27;;;13.30;99.90;;;;;;5031914;28;20235;-63
2023/10/31 02:22:23;;;;;;;12.30;11.90;;;13.30;99.90;;;;;;5031384;28;20216;-63
2023/10/31 02:24:50;;;;;;;12.03;11.63;;;13.30;99.90;;;;;;5035664;28;20244;-62
2023/10/31 02:27:17;;;;;;;12.40;12.00;;;13.20;99.90;;;;;;5045726;28;20232;-62
2023/10/31 02:29:44;;;;;;;11.93;11.53;;;13.20;99.90;;;;;;5040583;28;20212;-62
2023/10/31 02:32:11;;;;;;;11.93;11.53;;;13.20;99.90;;;;;;5044575;28;20208;-64
2023/10/31 02:34:38;;;;;;;12.73;12.33;;;13.10;99.90;;;;;;5038265;28;20237;-62
2023/10/31 02:37:05;;;;;;;12.90;12.50;;;13.10;99.90;;;;;;5044196;28;20216;-64
2023/10/31 02:39:34;;;;;;;14.57;14.07;;;13.10;99.90;;;;;;5042981;28;20679;-63
2023/10/31 02:42:01;;;;;;;14.23;13.73;;;13.10;99.90;;;;;;5035199;28;20216;-62
2023/10/31 02:44:28;;;;;;;14.97;14.47;;;13.00;99.90;;;;;;5030908;28;20228;-63
2023/10/31 02:46:54;;;;;;;14.40;13.90;;;13.00;99.90;;;;;;5030592;28;20213;-62
2023/10/31 02:49:22;;;;;;;14.30;13.80;;;13.10;99.90;;;;;;5034478;28;20208;-62
2023/10/31 02:51:49;;;;;;;13.93;13.43;;;13.00;99.90;;;;;;5032129;28;20219;-62
2023/10/31 02:54:15;;;;;;;13.93;13.43;;;13.00;99.90;;;;;;5031655;28;20282;-62
2023/10/31 02:56:43;;;;;;;14.10;13.60;;;13.00;99.90;;;;;;5032048;28;20225;-63
2023/10/31 02:59:10;;;;;;;13.73;13.27;;;13.00;99.90;;;;;;5031232;28;20220;-64
2023/10/31 03:01:37;;;;;;;13.87;13.37;;;13.00;99.90;;;;;;5029647;28;20247;-63
2023/10/31 03:04:04;;;;;;;13.10;12.60;;;13.00;99.90;;;;;;5030219;28;20228;-63
2023/10/31 03:06:31;;;;;;;13.07;12.57;;;12.90;99.90;;;;;;5030493;28;20212;-65
2023/10/31 03:08:57;;;;;;;13.60;13.13;;;12.90;99.90;;;;;;5031131;28;20224;-62
2023/10/31 03:11:25;;;;;;;14.57;14.07;;;12.90;99.90;;;;;;5030988;28;20562;-65
2023/10/31 03:13:54;;;;;;;14.60;14.10;;;13.00;99.90;;;;;;5034896;28;20243;-63
2023/10/31 03:16:21;;;;;;;14.40;13.90;;;13.00;99.90;;;;;;5029867;28;20236;-63
2023/10/31 03:18:48;;;;;;;14.43;13.93;;;13.00;99.90;;;;;;5031873;28;20584;-64
2023/10/31 03:21:15;;;;;;;15.40;14.90;;;13.00;99.90;;;;;;5032411;28;20215;-62
2023/10/31 03:23:42;;;;;;;14.60;14.10;;;13.00;99.90;;;;;;5029628;28;20305;-63
2023/10/31 03:26:09;;;;;;;15.10;14.60;;;13.00;99.90;;;;;;5029391;28;20227;-64
2023/10/31 03:28:35;;;;;;;14.73;14.23;;;13.10;99.90;;;;;;5030128;28;20232;-62
2023/10/31 03:31:04;;;;;;;14.97;14.47;;;13.10;99.90;;;;;;5033434;28;20222;-64
2023/10/31 03:33:30;;;;;;;15.00;14.50;;;13.00;99.90;;;;;;5028506;28;20255;-63
2023/10/31 03:35:57;;;;;;;14.77;14.27;;;13.00;99.90;;;;;;5029435;28;20241;-64
2023/10/31 03:38:24;;;;;;;14.13;13.63;;;13.00;99.90;;;;;;5028078;28;20213;-64
2023/10/31 03:40:50;;;;;;;14.70;14.17;;;12.90;99.90;;;;;;5033164;28;20215;-62
2023/10/31 03:43:17;;;;;;;14.50;14.00;;;12.90;99.90;;;;;;5030672;28;20251;-63
2023/10/31 03:45:44;;;;;;;14.53;14.00;;;13.00;99.90;;;;;;5030237;28;20213;-63
2023/10/31 03:48:12;;;;;;;14.47;13.97;;;13.00;99.90;;;;;;5033816;28;20235;-63
2023/10/31 03:50:39;;;;;;;14.27;13.77;;;12.90;99.90;;;;;;5026967;28;20641;-63
2023/10/31 03:53:05;;;;;;;15.87;15.37;;;12.90;99.90;;;;;;5030284;28;20212;-62
2023/10/31 03:55:32;;;;;;;14.87;14.37;;;12.80;99.90;;;;;;5030838;28;20299;-65
2023/10/31 03:57:59;;;;;;;15.03;14.53;;;13.00;99.90;;;;;;5030272;28;20295;-64
2023/10/31 04:00:26;;;;;;;15.77;15.27;;;12.90;99.90;;;;;;5031254;28;20590;-62
2023/10/31 04:02:53;;;;;;;14.70;14.20;;;12.90;99.90;;;;;;5031967;28;20216;-62
2023/10/31 04:05:22;;;;;;;15.03;14.53;;;12.90;99.90;;;;;;5030071;28;20243;-62
2023/10/31 04:07:49;;;;;;;15.10;14.60;;;12.90;99.90;;;;;;5031738;28;20294;-62
2023/10/31 04:10:16;;;;;;;14.57;14.07;;;13.00;99.90;;;;;;5030970;28;20251;-65
2023/10/31 04:12:43;;;;;;;14.67;14.17;;;13.00;99.90;;;;;;5031762;28;20216;-63
2023/10/31 04:15:10;;;;;;;14.10;13.60;;;12.90;99.90;;;;;;5029016;28;20687;-62
2023/10/31 04:17:37;;;;;;;14.43;13.93;;;12.90;99.90;;;;;;5030071;28;20215;-63
2023/10/31 04:20:05;;;;;;;13.93;13.43;;;13.00;99.90;;;;;;5029195;28;20219;-64
2023/10/31 04:22:33;;;;;;;13.80;13.30;;;12.90;99.90;;;;;;5031840;28;20223;-63
2023/10/31 04:25:00;;;;;;;14.53;14.03;;;12.90;99.90;;;;;;5036382;28;20228;-63
2023/10/31 04:27:26;;;;;;;14.23;13.73;;;12.90;99.90;;;;;;5033910;28;20216;-62
2023/10/31 04:29:53;;;;;;;15.00;14.50;;;12.90;99.90;;;;;;5034289;28;20212;-63
2023/10/31 04:32:20;;;;;;;15.97;15.37;;;12.80;99.90;;;;;;5030897;28;20212;-65
2023/10/31 04:34:47;;;;;;;15.23;14.63;;;12.70;99.90;;;;;;5032304;28;20224;-63
2023/10/31 04:37:13;;;;;;;16.03;15.40;;;12.70;99.90;;;;;;5032685;28;20742;-63
2023/10/31 04:39:41;;;;;;;15.23;14.73;;;12.80;99.90;;;;;;5037216;28;20208;-65
2023/10/31 04:42:08;;;;;;;15.00;14.50;;;12.80;99.90;;;;;;5033886;28;20236;-64
2023/10/31 04:44:35;;;;;;;14.90;14.40;;;12.80;99.90;;;;;;5036287;28;20263;-63
2023/10/31 04:47:02;;;;;;;14.53;14.03;;;12.90;99.90;;;;;;5033502;28;20570;-64
2023/10/31 04:49:28;;;;;;;14.47;13.97;;;12.80;99.90;;;;;;5035282;28;20244;-65
2023/10/31 04:51:55;;;;;;;14.67;14.17;;;12.80;99.90;;;;;;5033003;28;20217;-64
2023/10/31 04:54:22;;;;;;;15.20;14.70;;;12.80;99.90;;;;;;5032526;28;20232;-63
2023/10/31 04:56:50;;;;;;;14.60;14.10;;;12.90;99.90;;;;;;5035945;28;20209;-63
2023/10/31 04:59:17;;;;;;;13.70;13.23;;;12.80;99.90;;;;;;5030276;28;20212;-64
2023/10/31 05:01:50;;;;;;;15.33;14.83;;;12.80;99.90;;;;;;5029794;28;20742;-64
2023/10/31 05:04:16;;;;;;;14.60;14.10;;;12.70;99.90;;;;;;5036529;28;20256;-63
2023/10/31 05:06:44;;;;;;;12.87;12.47;;;12.80;99.90;;;;;;5046498;28;20718;-65
2023/10/31 05:09:11;;;;;;;15.67;15.17;;;12.70;99.90;;;;;;5046966;28;20239;-62
2023/10/31 05:11:38;;;;;;;14.20;13.70;;;12.60;99.90;;;;;;5042118;28;20232;-62
2023/10/31 05:14:07;;;;;;;14.47;13.97;;;12.60;99.90;;;;;;5042332;28;20231;-63
2023/10/31 05:16:40;;;;;;;13.13;12.73;;;12.60;99.90;;;;;;5030687;28;20247;-62
2023/10/31 05:19:07;;;;;;;13.77;13.27;;;12.50;99.90;;;;;;5035927;28;20685;-63
2023/10/31 05:21:34;;;;;;;14.33;13.83;;;12.50;99.90;;;;;;5032679;28;20307;-67
2023/10/31 05:24:01;;;;;;;14.00;13.50;;;12.50;99.90;;;;;;5032392;28;20228;-64
2023/10/31 05:26:29;;;;;;;14.17;13.67;;;12.40;99.90;;;;;;5037924;28;20216;-64
2023/10/31 05:28:56;;;;;;;14.30;13.80;;;12.40;99.90;;;;;;5035385;28;20225;-65
2023/10/31 05:31:24;;;;;;;14.23;13.73;;;12.40;99.90;;;;;;5030762;28;20207;-63
2023/10/31 05:33:52;;;;;;;15.43;14.93;;;12.40;99.90;;;;;;5033479;28;20286;-65
2023/10/31 05:36:20;;;;;;;13.63;13.13;;;12.40;99.90;;;;;;5033901;28;20212;-63
2023/10/31 05:38:46;;;;;;;14.27;13.77;;;12.40;99.90;;;;;;5034011;28;20665;-64
2023/10/31 05:41:13;;;;;;;15.17;14.67;;;12.40;99.90;;;;;;5034301;28;20212;-64
2023/10/31 05:43:40;;;;;;;14.87;14.37;;;12.40;99.90;;;;;;5032063;28;20233;-64
2023/10/31 05:46:10;;;;;;;15.50;15.00;;;12.40;99.90;;;;;;5032993;28;20671;-64
2023/10/31 05:48:38;;;;;;;16.00;15.40;;;12.40;99.90;;;;;;5033524;28;20274;-64
2023/10/31 05:51:05;;;;;;;16.13;15.53;;;12.50;99.90;;;;;;5033194;28;20220;-63
2023/10/31 05:53:33;;;;;;;16.77;16.17;;;12.40;99.90;;;;;;5030177;28;20687;-63
2023/10/31 05:56:00;;;;;;;17.70;17.10;;;12.50;99.90;;;;;;5030887;28;20204;-66
2023/10/31 05:58:27;;;;;;;16.73;16.13;;;12.50;99.90;;;;;;5033509;28;20220;-64
2023/10/31 06:00:54;;;;;;;14.80;14.23;;;12.50;99.90;;;;;;5031369;28;20633;-63
2023/10/31 06:03:20;;;;;;;13.50;13.07;;;12.50;99.90;;;;;;5032478;28;20229;-63
2023/10/31 06:05:48;;;;;;;13.93;13.43;;;12.50;99.90;;;;;;5036249;28;20585;-63
2023/10/31 06:08:15;;;;;;;16.83;16.23;;;12.50;99.90;;;;;;5030747;28;20204;-65
2023/10/31 06:10:42;;;;;;;14.03;13.53;;;12.50;99.90;;;;;;5031613;28;20204;-63
2023/10/31 06:13:08;;;;;;;14.53;14.03;;;12.50;99.90;;;;;;5036861;28;20210;-62
2023/10/31 06:15:35;;;;;;;13.90;13.40;;;12.50;99.90;;;;;;5031683;28;20219;-63
2023/10/31 06:18:02;;;;;;;16.30;15.77;;;12.50;99.90;;;;;;5034918;28;20212;-64
2023/10/31 06:20:29;;;;;;;15.10;14.60;;;12.40;99.90;;;;;;5029926;28;20240;-63
2023/10/31 06:22:59;;;;;;;16.73;16.13;;;12.40;99.90;;;;;;5034156;28;20542;-63
2023/10/31 06:25:26;;;;;;;17.77;17.17;;;12.30;99.90;;;;;;5036132;28;20275;-63
2023/10/31 06:27:52;;;;;;;17.90;17.30;;;12.30;99.90;;;;;;5032153;28;20303;-64
2023/10/31 06:30:19;;;;;;;19.40;18.70;;;12.20;99.90;;;;;;5035513;28;20699;-62
2023/10/31 06:32:46;;;;;;;18.30;17.70;;;12.20;99.90;;;;;;5033657;28;20204;-63
2023/10/31 06:35:13;;;;;;;16.93;16.33;;;12.10;99.90;;;;;;5033366;28;20240;-63
2023/10/31 06:37:39;;;;;;;17.70;17.10;;;12.10;99.90;;;;;;5032975;28;20587;-64
2023/10/31 06:40:09;;;;;;;18.43;17.83;;;12.00;99.90;;;;;;5032335;28;20292;-63
2023/10/31 06:42:36;;;;;;;17.43;16.83;;;11.90;99.90;;;;;;5032327;28;20215;-62
2023/10/31 06:45:03;;;;;;;18.90;18.27;;;11.90;99.90;;;;;;5029230;28;20224;-62
2023/10/31 06:47:29;;;;;;;18.67;18.03;;;12.00;99.90;;;;;;5032556;28;20211;-64
2023/10/31 06:49:56;;;;;;;17.73;17.10;;;12.00;99.90;;;;;;5031865;28;20232;-63
2023/10/31 06:52:23;;;;;;;19.70;19.03;;;12.00;99.90;;;;;;5036890;28;20655;-63
2023/10/31 06:54:50;;;;;;;21.50;20.73;;;12.00;99.90;;;;;;5039458;28;20224;-63
2023/10/31 06:57:18;;;;;;;19.60;18.93;;;11.90;99.90;;;;;;5035889;28;20220;-64
2023/10/31 06:59:44;;;;;;;16.63;16.07;;;12.00;99.90;;;;;;5035099;28;20682;-64
2023/10/31 07:02:11;;;;;;;21.00;20.27;;;12.00;99.90;;;;;;5034827;28;20205;-65
2023/10/31 07:04:38;;;;;;;18.70;18.03;;;12.00;99.90;;;;;;5034877;28;20610;-63
2023/10/31 07:07:04;;;;;;;22.57;21.77;;;12.00;99.90;;;;;;5044819;28;20212;-63
2023/10/31 07:09:31;;;;;;;22.63;21.87;;;11.90;99.90;;;;;;5038324;28;20231;-63
2023/10/31 07:11:58;;;;;;;20.57;19.87;;;12.00;99.90;;;;;;5045106;28;20204;-63
2023/10/31 07:14:26;;;;;;;17.47;16.87;;;12.00;99.90;;;;;;5041949;28;20236;-63
2023/10/31 07:16:52;;;;;;;20.13;19.27;;;12.00;99.90;;;;;;5029297;28;20208;-63
2023/10/31 07:19:19;;;;;;;17.57;16.97;;;12.10;99.90;;;;;;5030989;28;20581;-64
2023/10/31 07:21:46;;;;;;;18.83;18.20;;;12.20;99.90;;;;;;5032762;28;20217;-63
2023/10/31 07:24:13;;;;;;;19.77;19.10;;;12.20;99.90;;;;;;5032471;28;20237;-62
2023/10/31 07:26:39;;;;;;;21.27;20.53;;;12.20;99.90;;;;;;5033213;28;20208;-63
2023/10/31 07:29:06;;;;;;;19.93;19.23;;;12.20;99.90;;;;;;5030624;28;20224;-64
2023/10/31 07:31:38;;;;;;;19.23;18.53;;;12.30;99.90;;;;;;5026236;28;20201;-63
2023/10/31 07:34:05;;;;;;;17.17;16.57;;;12.30;99.90;;;;;;5020160;28;20312;-62
2023/10/31 07:36:34;;;;;;;20.97;20.27;;;12.40;99.90;;;;;;5016897;28;20236;-63
2023/10/31 07:39:01;;;;;;;18.30;17.67;;;12.40;99.90;;;;;;5022911;28;20213;-65
2023/10/31 07:41:28;;;;;;;22.00;21.23;;;12.40;99.90;;;;;;5022879;28;20295;-63
2023/10/31 07:43:55;;;;;;;19.43;18.77;;;12.40;99.90;;;;;;5019064;28;20711;-63
2023/10/31 07:46:23;;;;;;;16.47;15.87;;;12.50;99.90;;;;;;5022940;28;20461;-63
2023/10/31 07:48:51;;;;;;;17.03;16.43;;;12.50;99.90;;;;;;5016461;28;20201;-63
2023/10/31 07:51:17;;;;;;;22.13;21.37;;;12.50;99.90;;;;;;5016945;28;20200;-63
2023/10/31 07:53:44;;;;;;;17.00;16.40;;;12.50;99.90;;;;;;5023232;28;20235;-63
2023/10/31 07:56:16;;;;;;;18.90;18.20;;;12.60;99.90;;;;;;5018297;28;20212;-63
2023/10/31 07:58:43;;;;;;;18.40;17.80;;;12.60;99.90;;;;;;5024202;28;20216;-63
2023/10/31 08:01:11;;;;;;;17.27;16.67;;;12.70;99.90;;;;;;5024981;28;20219;-63
2023/10/31 08:03:38;;;;;;;19.57;18.87;;;12.70;99.90;;;;;;5022186;28;20224;-63
2023/10/31 08:06:07;;;;;;;18.40;17.77;;;12.70;99.90;;;;;;5025189;28;20209;-63
2023/10/31 08:08:35;;;;;;;17.50;16.90;;;12.80;99.90;;;;;;5023114;28;20228;-62
2023/10/31 08:11:01;;;;;;;16.33;15.73;;;12.80;99.90;;;;;;5024121;28;20242;-65
2023/10/31 08:13:28;;;;;;;18.40;17.70;;;12.70;99.90;;;;;;5024799;28;20235;-64
2023/10/31 08:15:55;;;;;;;18.97;18.33;;;12.70;99.90;;;;;;5019544;28;20324;-62
2023/10/31 08:18:24;;;;;;;16.60;16.00;;;12.70;99.90;;;;;;5020189;28;20213;-64
2023/10/31 08:20:50;;;;;;;20.57;19.87;;;12.80;99.90;;;;;;5022200;28;20610;-62
2023/10/31 08:23:18;;;;;;;18.67;18.07;;;12.80;99.90;;;;;;5018631;28;20208;-63
2023/10/31 08:25:45;;;;;;;16.77;16.17;;;12.80;99.90;;;;;;5025172;28;20236;-63
2023/10/31 08:28:13;;;;;;;18.10;17.50;;;12.80;99.90;;;;;;5022485;28;20249;-64
2023/10/31 08:30:40;;;;;;;17.60;17.00;;;12.80;99.90;;;;;;5014776;28;20232;-63
2023/10/31 08:33:06;;;;;;;16.37;15.77;;;12.80;99.90;;;;;;5021113;28;20201;-62
2023/10/31 08:35:33;;;;;;;16.13;15.53;;;12.90;99.90;;;;;;5023600;28;20221;-63
2023/10/31 08:38:00;;;;;;;14.77;14.27;;;12.90;99.90;;;;;;5026261;28;20301;-64
2023/10/31 08:40:28;;;;;;;14.77;14.27;;;12.90;99.90;;;;;;5020431;28;20288;-65
2023/10/31 08:42:55;;;;;;;13.80;13.30;;;13.00;99.90;;;;;;5021214;28;20217;-67
2023/10/31 08:45:22;;;;;;;13.70;13.20;;;13.00;99.90;;;;;;5020521;28;20231;-64
2023/10/31 08:47:50;;;;;;;12.30;11.90;;;13.00;99.90;;;;;;5024434;28;20826;-64
2023/10/31 08:50:16;;;;;;;13.27;12.87;;;13.00;99.90;;;;;;5019212;28;20691;-63
2023/10/31 08:52:43;;;;;;;13.33;12.83;;;13.00;99.90;;;;;;5021348;28;20236;-64
2023/10/31 08:55:10;;;;;;;14.50;14.00;;;13.10;99.90;;;;;;5019101;28;20232;-63
2023/10/31 08:57:38;;;;;;;13.20;12.80;;;13.10;99.90;;;;;;5021798;28;20211;-64
2023/10/31 09:00:06;;;;;;;13.17;12.67;;;13.10;99.90;;;;;;5021774;28;20683;-63
2023/10/31 09:02:33;;;;;;;13.10;12.60;;;13.10;99.90;;;;;;5022577;28;20275;-62
2023/10/31 09:05:02;;;;;;;13.40;12.90;;;13.10;99.90;;;;;;5029786;28;20546;-64
2023/10/31 09:07:29;;;;;;;12.77;12.37;;;13.20;99.90;;;;;;5029419;28;20240;-63
2023/10/31 09:09:56;;;;;;;12.97;12.47;;;13.30;99.90;;;;;;5028372;28;20228;-64
2023/10/31 09:12:22;;;;;;;12.43;12.03;;;13.30;99.90;;;;;;5028250;28;20571;-63
2023/10/31 09:14:51;;;;;;;12.50;12.10;;;13.40;99.90;;;;;;5027620;28;20249;-63
2023/10/31 09:17:18;;;;;;;13.10;12.70;;;13.40;99.90;;;;;;5023570;28;20206;-62
2023/10/31 09:19:45;;;;;;;12.40;12.00;;;13.50;99.90;;;;;;5026539;28;20212;-62
2023/10/31 09:22:11;;;;;;;12.73;12.33;;;13.50;99.90;;;;;;5024041;28;20207;-62
2023/10/31 09:24:40;;;;;;;12.13;11.73;;;13.50;99.90;;;;;;5020724;28;20224;-62
2023/10/31 09:27:06;;;;;;;12.87;12.37;;;13.60;99.90;;;;;;5025728;28;20380;-62
2023/10/31 09:29:33;;;;;;;12.23;11.83;;;13.60;99.90;;;;;;5029353;28;20656;-62
2023/10/31 09:32:01;;;;;;;12.10;11.70;;;13.60;99.90;;;;;;5025348;28;20687;-61
2023/10/31 09:34:28;;;;;;;13.00;12.50;;;13.70;99.90;;;;;;5027252;28;20320;-63
2023/10/31 09:36:55;;;;;;;11.90;11.47;;;13.80;99.90;;;;;;5028213;28;20912;-63
2023/10/31 09:39:22;;;;;;;12.20;11.80;;;13.80;99.90;;;;;;5026248;28;20626;-63
2023/10/31 09:41:49;;;;;;;12.20;11.80;;;13.80;99.90;;;;;;5023409;28;20220;-64
2023/10/31 09:44:16;;;;;;;12.30;11.90;;;13.90;99.90;;;;;;5039410;28;20327;-64
2023/10/31 09:46:44;;;;;;;11.70;11.30;;;13.90;99.90;;;;;;5039747;28;20215;-64
2023/10/31 09:49:12;;;;;;;12.53;12.10;;;13.90;99.90;;;;;;5051574;28;20228;-63
2023/10/31 09:51:39;;;;;;;12.07;11.67;;;13.90;99.90;;;;;;5046472;28;20196;-64
2023/10/31 09:54:08;;;;;;;12.40;12.00;;;13.90;99.90;;;;;;5048310;28;20499;-62
2023/10/31 09:56:35;;;;;;;11.90;11.50;;;13.80;99.90;;;;;;5036781;28;20231;-62
2023/10/31 09:59:02;;;;;;;12.30;11.90;;;13.80;99.90;;;;;;5028174;28;20232;-64
2023/10/31 10:01:29;;;;;;;12.73;12.23;;;13.80;99.90;;;;;;5027563;28;20572;-62
2023/10/31 10:03:57;;;;;;;12.10;11.70;;;13.90;99.90;;;;;;5029646;28;20247;-64
2023/10/31 10:06:25;;;;;;;12.10;11.70;;;13.90;99.90;;;;;;5027587;28;20235;-62
2023/10/31 10:08:52;;;;;;;12.03;11.63;;;13.90;99.90;;;;;;5033890;28;20216;-62
2023/10/31 10:11:19;;;;;;;11.93;11.53;;;14.00;99.90;;;;;;5032362;28;20331;-62
2023/10/31 10:13:46;;;;;;;12.20;11.80;;;14.00;99.90;;;;;;5024750;28;20298;-63
2023/10/31 10:16:13;;;;;;;11.90;11.50;;;14.10;99.90;;;;;;5027008;28;20207;-63
2023/10/31 10:18:40;;;;;;;12.30;11.90;;;14.10;99.90;;;;;;5028593;28;20574;-63
2023/10/31 10:21:09;;;;;;;11.90;11.50;;;14.10;99.90;;;;;;5025159;28;20312;-64
2023/10/31 10:23:37;;;;;;;12.20;11.80;;;14.10;99.90;;;;;;5022226;28;20242;-63
2023/10/31 10:26:04;;;;;;;12.13;11.73;;;14.20;99.90;;;;;;5028377;28;20197;-63
2023/10/31 10:28:32;;;;;;;12.20;11.80;;;14.10;99.90;;;;;;5028825;28;20208;-63
2023/10/31 10:30:59;;;;;;;11.93;11.53;;;14.00;99.90;;;;;;5027369;28;20621;-63
2023/10/31 10:33:26;;;;;;;11.93;11.53;;;14.00;99.90;;;;;;5035161;28;20831;-62
2023/10/31 10:35:55;;;;;;;11.73;11.33;;;14.00;99.90;;;;;;5041531;28;20224;-68
2023/10/31 10:38:23;;;;;;;12.10;11.70;;;14.00;99.90;;;;;;5041960;28;20205;-62
2023/10/31 10:40:52;;;;;;;12.00;11.60;;;14.00;99.90;;;;;;5038354;28;20216;-63
2023/10/31 10:43:23;;;;;;;12.20;11.80;;;14.00;99.90;;;;;;5032598;28;20208;-61
2023/10/31 10:45:55;;;;;;;12.37;11.97;;;14.00;99.90;;;;;;5031798;28;20197;-62
2023/10/31 10:48:23;;;;;;;12.40;12.00;;;14.00;99.90;;;;;;5031008;28;20260;-61
2023/10/31 10:50:57;;;;;;;12.10;11.70;;;14.00;99.90;;;;;;5028916;28;20665;-63
2023/10/31 10:53:27;;;;;;;12.33;11.93;;;14.00;99.90;;;;;;5028564;28;20224;-61
2023/10/31 10:55:58;;;;;;;12.33;11.93;;;14.00;99.90;;;;;;5029315;28;20322;-60
2023/10/31 10:58:34;;;;;;;12.90;12.50;;;14.00;99.90;;;;;;5028098;28;20211;-63
2023/10/31 11:01:02;;;;;;;13.40;12.90;;;14.00;99.90;;;;;;5027653;28;20239;-63
2023/10/31 11:03:30;;;;;;;12.40;12.00;;;14.00;99.90;;;;;;5024895;28;20263;-63
2023/10/31 11:05:58;;;;;;;12.57;12.17;;;14.10;99.90;;;;;;5029111;28;20209;-64
2023/10/31 11:08:26;;;;;;;11.70;11.30;;;14.00;99.90;;;;;;5028595;28;20268;-61
2023/10/31 11:13:26;;;;;;;12.70;12.30;;;14.10;99.90;;;;;;5022541;28;20225;-62
2023/10/31 11:15:58;;;;;;;12.00;11.60;;;14.10;99.90;;;;;;5006297;28;20240;-62
2023/10/31 11:18:26;;;;;;;13.07;12.57;;;14.20;99.90;;;;;;5010223;28;20205;-63
2023/10/31 11:20:53;;;;;;;12.80;12.30;;;14.20;99.90;;;;;;5009595;28;20213;-63
2023/10/31 11:23:20;;;;;;;12.60;12.10;;;14.30;99.90;;;;;;5008911;28;20219;-63
2023/10/31 11:25:53;;;;;;;11.90;11.50;;;14.40;99.90;;;;;;5011633;28;20205;-64
2023/10/31 11:28:20;;;;;;;12.33;11.93;;;14.40;99.90;;;;;;5013575;28;20237;-64
2023/10/31 11:30:49;;;;;;;12.43;12.03;;;14.50;99.90;;;;;;5011839;28;20724;-65
2023/10/31 11:33:19;;;;;;;12.37;11.97;;;14.40;99.90;;;;;;5009381;28;20568;-64
2023/10/31 11:35:51;;;;;;;11.90;11.50;;;14.40;99.90;;;;;;5012896;28;20216;-63
2023/10/31 11:38:28;;;;;;;12.30;11.90;;;14.40;99.90;;;;;;5009765;28;20468;-63
2023/10/31 11:41:02;;;;;;;12.53;12.13;;;14.40;99.90;;;;;;5009267;28;20201;-64
2023/10/31 11:43:54;;;;;;;13.67;13.17;;;14.50;99.90;;;;;;5008133;28;20227;-64
2023/10/31 11:46:24;;;;;;;12.90;12.43;;;14.50;99.90;;;;;;5007514;28;20201;-63
2023/10/31 11:48:52;;;;;;;12.23;11.83;;;14.50;99.90;;;;;;5008941;28;20209;-63
2023/10/31 11:51:19;;;;;;;12.20;11.80;;;14.50;99.90;;;;;;5007684;28;20585;-62
2023/10/31 11:53:46;;;;;;;12.10;11.70;;;14.60;99.90;;;;;;5008529;28;20240;-65
2023/10/31 11:56:13;;;;;;;11.83;11.43;;;14.60;99.90;;;;;;5008213;28;20217;-62
2023/10/31 11:58:39;;;;;;;12.10;11.70;;;14.70;99.90;;;;;;5008895;28;20206;-64
2023/10/31 12:01:07;;;;;;;12.33;11.93;;;14.80;99.90;;;;;;5006654;28;20208;-64
2023/10/31 12:03:39;;;;;;;12.43;11.97;;;14.90;99.90;;;;;;5004863;28;20229;-64
2023/10/31 12:06:07;;;;;;;12.20;11.80;;;14.90;99.90;;;;;;5008300;28;20209;-64
2023/10/31 12:08:37;;;;;;;12.00;11.60;;;15.00;99.90;;;;;;5008569;28;20213;-64
2023/10/31 12:11:09;;;;;;;12.10;11.70;;;15.00;99.90;;;;;;5008406;28;20221;-62
2023/10/31 12:13:37;;;;;;;13.00;12.50;;;15.10;99.90;;;;;;5004804;28;20528;-63
2023/10/31 12:16:05;;;;;;;12.90;12.50;;;15.00;99.90;;;;;;5005273;28;20308;-64
2023/10/31 12:18:32;;;;;;;12.97;12.47;;;15.00;99.90;;;;;;5008761;28;20305;-64
2023/10/31 12:21:00;;;;;;;12.77;12.37;;;15.10;99.90;;;;;;5010779;28;20213;-64
2023/10/31 12:23:27;;;;;;;13.13;12.73;;;15.20;99.90;;;;;;5009413;28;21660;-64
2023/10/31 12:25:54;;;;;;;13.10;12.70;;;15.30;99.90;;;;;;5012553;28;20205;-64
2023/10/31 12:28:23;;;;;;;13.93;13.43;;;15.50;99.90;;;;;;5010688;28;20209;-70
2023/10/31 12:30:54;;;;;;;15.13;14.63;;;15.60;99.90;;;;;;5014456;28;20221;-65
2023/10/31 12:33:24;;;;;;;15.50;15.00;;;15.70;99.90;;;;;;5012776;28;20209;-64